Time;durP1;ratioP1;P1;durP2;ratioP2;P2;SDS_P1;SDS_P2;PMS_P1;PMS_P2;Temp;Humidity;BMP_temperature;BMP_pressure;BME280_temperature;BME280_humidity;BME280_pressure;Samples;Min_cycle;Max_cycle;Signal;HPM_P1;HPM_P2
2024/03/20 00:01:52;;;;;;;3.55;1.85;;;;;;;;;;4869256;29;20049;-73
2024/03/20 00:04:23;;;;;;;4.35;1.92;;;;;;;;;;4854876;29;20052;-72
2024/03/20 00:06:52;;;;;;;5.18;1.80;;;;;;;;;;4869456;29;20440;-72
2024/03/20 00:09:20;;;;;;;4.68;2.00;;;;;;;;;;4854108;29;20524;-74
2024/03/20 00:11:53;;;;;;;9.60;1.80;;;;;;;;;;4869300;29;20045;-73
2024/03/20 00:14:22;;;;;;;7.85;2.30;;;;;;;;;;4869248;29;20473;-71
2024/03/20 00:16:51;;;;;;;6.00;1.98;;;;;;;;;;4868686;29;20528;-72
2024/03/20 00:19:21;;;;;;;10.65;2.53;;;;;;;;;;4868458;29;20049;-73
2024/03/20 00:21:49;;;;;;;7.07;2.20;;;;;;;;;;4869090;29;20049;-72
2024/03/20 00:24:17;;;;;;;4.38;1.90;;;;;;;;;;4868333;29;20049;-73
2024/03/20 00:26:47;;;;;;;4.72;1.85;;;;;;;;;;4867431;29;20153;-73
2024/03/20 00:29:16;;;;;;;4.95;2.10;;;;;;;;;;4868859;29;20052;-72
2024/03/20 00:31:44;;;;;;;7.20;2.28;;;;;;;;;;4868405;29;20041;-72
2024/03/20 00:34:13;;;;;;;5.47;2.35;;;;;;;;;;4868985;29;20056;-73
2024/03/20 00:36:41;;;;;;;3.67;2.47;;;;;;;;;;4868546;29;20505;-73
2024/03/20 00:39:11;;;;;;;7.03;2.42;;;;;;;;;;4869389;29;20057;-73
2024/03/20 00:41:39;;;;;;;4.85;2.83;;;;;;;;;;4869959;29;20108;-72
2024/03/20 00:44:08;;;;;;;4.45;2.45;;;;;;;;;;4868710;29;20045;-73
2024/03/20 00:46:36;;;;;;;5.75;2.67;;;;;;;;;;4869349;29;20048;-79
2024/03/20 00:49:04;;;;;;;6.05;2.50;;;;;;;;;;4852883;29;20076;-72
2024/03/20 00:51:33;;;;;;;5.78;2.30;;;;;;;;;;4868313;29;20830;-73
2024/03/20 00:54:02;;;;;;;;;;;;;;;;;;4868840;29;20045;-72
2024/03/20 00:56:30;;;;;;;5.70;2.42;;;;;;;;;;4868070;29;19924;-72
2024/03/20 00:58:58;;;;;;;6.97;2.70;;;;;;;;;;4868774;29;20402;-72
2024/03/20 01:01:26;;;;;;;4.15;2.90;;;;;;;;;;4868102;29;20041;-72
2024/03/20 01:03:55;;;;;;;5.32;2.90;;;;;;;;;;4868253;29;20057;-73
2024/03/20 01:06:24;;;;;;;3.92;3.08;;;;;;;;;;4868188;29;20416;-72
2024/03/20 01:08:53;;;;;;;3.80;2.72;;;;;;;;;;4852138;29;20049;-72
2024/03/20 01:11:21;;;;;;;4.18;2.65;;;;;;;;;;4868229;29;20410;-77
2024/03/20 01:13:49;;;;;;;5.43;3.00;;;;;;;;;;4868019;29;20060;-73
2024/03/20 01:16:18;;;;;;;7.43;2.80;;;;;;;;;;4867887;29;20845;-72
2024/03/20 01:18:47;;;;;;;4.25;2.88;;;;;;;;;;4868219;29;20052;-73
2024/03/20 01:21:17;;;;;;;7.85;2.47;;;;;;;;;;4867934;29;20460;-72
2024/03/20 01:23:45;;;;;;;8.85;3.05;;;;;;;;;;4867991;29;20049;-73
2024/03/20 01:26:14;;;;;;;5.70;2.70;;;;;;;;;;4867411;29;20041;-73
2024/03/20 01:28:42;;;;;;;;;;;;;;;;;;4868542;29;20053;-73
2024/03/20 01:31:10;;;;;;;5.80;2.90;;;;;;;;;;4868465;29;19931;-72
2024/03/20 01:33:39;;;;;;;4.78;2.53;;;;;;;;;;4868039;29;20520;-73
2024/03/20 01:36:08;;;;;;;5.72;2.83;;;;;;;;;;4852941;29;20044;-72
2024/03/20 01:38:37;;;;;;;5.50;2.40;;;;;;;;;;4867645;29;20060;-71
2024/03/20 01:41:05;;;;;;;6.65;2.90;;;;;;;;;;4867290;29;20041;-73
2024/03/20 01:43:35;;;;;;;9.43;2.70;;;;;;;;;;4867504;29;20049;-72
2024/03/20 01:46:25;;;;;;;5.28;2.90;;;;;;;;;;4867369;29;20061;-72
2024/03/20 01:48:56;;;;;;;9.50;2.67;;;;;;;;;;4868406;29;20044;-72
2024/03/20 01:51:26;;;;;;;5.20;3.10;;;;;;;;;;4867782;29;20052;-71
2024/03/20 01:53:56;;;;;;;6.25;2.90;;;;;;;;;;4867260;29;20056;-72
2024/03/20 01:56:25;;;;;;;7.47;3.08;;;;;;;;;;4867054;29;20061;-72
2024/03/20 01:58:54;;;;;;;3.78;2.65;;;;;;;;;;4867275;29;20401;-72
2024/03/20 02:01:23;;;;;;;5.32;2.78;;;;;;;;;;4868289;29;20056;-72
2024/03/20 02:03:52;;;;;;;6.53;3.05;;;;;;;;;;4868065;29;20037;-73
2024/03/20 02:06:29;;;;;;;4.15;2.58;;;;;;;;;;4868407;29;20576;-72
2024/03/20 02:08:58;;;;;;;5.28;2.53;;;;;;;;;;4867761;29;20513;-72
2024/03/20 02:11:28;;;;;;;3.50;3.03;;;;;;;;;;4867588;29;20052;-73
2024/03/20 02:13:58;;;;;;;7.50;2.78;;;;;;;;;;4868183;29;20409;-72
2024/03/20 02:16:28;;;;;;;6.40;3.00;;;;;;;;;;4871548;29;20560;-72
2024/03/20 02:18:56;;;;;;;4.75;3.00;;;;;;;;;;4871538;29;20056;-72
2024/03/20 02:21:25;;;;;;;5.68;2.60;;;;;;;;;;4855387;29;20056;-72
2024/03/20 02:23:53;;;;;;;4.72;2.90;;;;;;;;;;4871082;29;20436;-72
2024/03/20 02:26:21;;;;;;;4.50;3.13;;;;;;;;;;4871954;29;20049;-72
2024/03/20 02:28:50;;;;;;;4.38;2.85;;;;;;;;;;4854718;29;20439;-73
2024/03/20 02:31:19;;;;;;;4.22;2.97;;;;;;;;;;4870489;29;20052;-72
2024/03/20 02:33:47;;;;;;;;;;;;;;;;;;4871495;29;20521;-71
2024/03/20 02:36:15;;;;;;;5.60;2.72;;;;;;;;;;4855128;29;19928;-72
2024/03/20 02:38:44;;;;;;;4.40;2.92;;;;;;;;;;4870875;29;20051;-71
2024/03/20 02:41:12;;;;;;;3.88;3.10;;;;;;;;;;4870405;29;20068;-71
2024/03/20 02:43:40;;;;;;;5.65;3.35;;;;;;;;;;4870842;29;20053;-72
2024/03/20 02:46:10;;;;;;;6.28;2.90;;;;;;;;;;4870206;29;20056;-72
2024/03/20 02:48:39;;;;;;;6.82;3.22;;;;;;;;;;4870223;29;20811;-72
2024/03/20 02:51:07;;;;;;;3.63;2.80;;;;;;;;;;4870443;29;20041;-71
2024/03/20 02:53:35;;;;;;;4.30;2.90;;;;;;;;;;4870863;29;20421;-71
2024/03/20 02:56:04;;;;;;;6.32;3.78;;;;;;;;;;4870595;29;20053;-71
2024/03/20 02:58:33;;;;;;;6.53;3.60;;;;;;;;;;4870026;29;20045;-72
2024/03/20 03:01:03;;;;;;;;;;;;;;;;;;4870604;29;20079;-72
2024/03/20 03:03:31;;;;;;;5.75;2.90;;;;;;;;;;4870745;29;20318;-71
2024/03/20 03:05:59;;;;;;;9.25;3.70;;;;;;;;;;4869942;29;20084;-71
2024/03/20 03:08:28;;;;;;;9.13;3.45;;;;;;;;;;4870091;29;20045;-72
2024/03/20 03:10:56;;;;;;;5.45;3.63;;;;;;;;;;4870504;29;20045;-71
2024/03/20 03:13:25;;;;;;;7.95;3.80;;;;;;;;;;4869986;29;20053;-72
2024/03/20 03:15:53;;;;;;;12.05;3.67;;;;;;;;;;4870482;29;20793;-72
2024/03/20 03:18:22;;;;;;;8.40;3.15;;;;;;;;;;4870574;29;20695;-71
2024/03/20 03:20:50;;;;;;;8.50;3.92;;;;;;;;;;4870050;29;20049;-73
2024/03/20 03:23:19;;;;;;;5.43;3.38;;;;;;;;;;4869971;29;20068;-72
2024/03/20 03:25:47;;;;;;;7.63;3.67;;;;;;;;;;4870091;29;20527;-72
2024/03/20 03:28:16;;;;;;;6.57;3.60;;;;;;;;;;4869693;29;20045;-72
2024/03/20 03:30:45;;;;;;;7.63;3.65;;;;;;;;;;4870483;29;20049;-72
2024/03/20 03:33:13;;;;;;;9.00;3.60;;;;;;;;;;4854499;29;20071;-72
2024/03/20 03:35:41;;;;;;;9.13;4.25;;;;;;;;;;4869757;29;20524;-72
2024/03/20 03:38:10;;;;;;;3.65;3.15;;;;;;;;;;4869343;29;20045;-72
2024/03/20 03:40:38;;;;;;;8.90;3.92;;;;;;;;;;4869478;29;20053;-72
2024/03/20 03:43:06;;;;;;;7.95;3.97;;;;;;;;;;4869632;29;20072;-72
2024/03/20 03:45:35;;;;;;;8.30;3.80;;;;;;;;;;4853952;29;20417;-71
2024/03/20 03:48:04;;;;;;;4.72;3.75;;;;;;;;;;4869890;29;20049;-72
2024/03/20 03:50:33;;;;;;;8.85;3.90;;;;;;;;;;4869468;29;20075;-72
2024/03/20 03:53:01;;;;;;;8.18;3.90;;;;;;;;;;4869353;29;20057;-72
2024/03/20 03:55:31;;;;;;;8.68;3.85;;;;;;;;;;4868975;29;20044;-71
2024/03/20 03:58:00;;;;;;;5.68;3.53;;;;;;;;;;4869370;29;20057;-72
2024/03/20 04:00:30;;;;;;;5.35;4.05;;;;;;;;;;4869611;29;20131;-72
2024/03/20 04:02:59;;;;;;;5.07;3.60;;;;;;;;;;4869292;29;20053;-72
2024/03/20 04:05:27;;;;;;;8.35;3.60;;;;;;;;;;4869893;29;20052;-72
2024/03/20 04:07:55;;;;;;;6.30;3.90;;;;;;;;;;4868788;29;20048;-72
2024/03/20 04:10:24;;;;;;;7.47;3.55;;;;;;;;;;4869064;29;20053;-72
2024/03/20 04:12:53;;;;;;;7.03;3.83;;;;;;;;;;4869068;29;20049;-72
2024/03/20 04:15:22;;;;;;;5.80;4.25;;;;;;;;;;4853795;29;20225;-72
2024/03/20 04:17:54;;;;;;;5.20;3.85;;;;;;;;;;4869647;29;20041;-72
2024/03/20 04:20:23;;;;;;;5.68;3.83;;;;;;;;;;4869310;29;20512;-72
2024/03/20 04:22:51;;;;;;;6.85;4.20;;;;;;;;;;4869388;29;21152;-72
2024/03/20 04:25:20;;;;;;;6.68;3.90;;;;;;;;;;4869143;29;20504;-72
2024/03/20 04:27:49;;;;;;;4.93;4.00;;;;;;;;;;4868764;29;20045;-72
2024/03/20 04:30:17;;;;;;;7.32;4.03;;;;;;;;;;4868656;29;20052;-72
2024/03/20 04:32:45;;;;;;;6.95;3.80;;;;;;;;;;4868385;29;20060;-72
2024/03/20 04:35:17;;;;;;;5.50;3.83;;;;;;;;;;4868381;29;20424;-72
2024/03/20 04:37:45;;;;;;;6.60;3.95;;;;;;;;;;4867828;29;20512;-71
2024/03/20 04:40:13;;;;;;;5.82;4.30;;;;;;;;;;4868620;29;20045;-72
2024/03/20 04:42:42;;;;;;;7.07;3.75;;;;;;;;;;4868462;29;20071;-72
2024/03/20 04:45:14;;;;;;;7.60;4.45;;;;;;;;;;4868059;29;20053;-71
2024/03/20 04:47:43;;;;;;;5.70;3.92;;;;;;;;;;4852829;29;20064;-71
2024/03/20 04:50:12;;;;;;;8.80;4.28;;;;;;;;;;4868647;29;20417;-73
2024/03/20 04:52:41;;;;;;;7.53;3.85;;;;;;;;;;4868358;29;20417;-71
2024/03/20 04:55:09;;;;;;;7.82;4.10;;;;;;;;;;4867138;29;20061;-72
2024/03/20 04:57:38;;;;;;;5.95;3.65;;;;;;;;;;4868655;29;20053;-72
2024/03/20 05:00:15;;;;;;;7.78;3.45;;;;;;;;;;4868418;29;20476;-72
2024/03/20 05:02:45;;;;;;;6.10;3.30;;;;;;;;;;4868249;29;20056;-71
2024/03/20 05:05:12;;;;;;;;;;;;;;;;;;4868786;29;20543;-72
2024/03/20 05:07:42;;;;;;;6.75;3.35;;;;;;;;;;4868580;29;19936;-72
2024/03/20 05:10:11;;;;;;;7.80;3.60;;;;;;;;;;4852587;29;20075;-72
2024/03/20 05:12:39;;;;;;;6.15;3.05;;;;;;;;;;4868898;29;20425;-72
2024/03/20 05:15:07;;;;;;;5.93;3.58;;;;;;;;;;4868525;29;20052;-72
2024/03/20 05:17:36;;;;;;;6.55;3.47;;;;;;;;;;4867975;29;20049;-72
2024/03/20 05:20:05;;;;;;;4.50;3.58;;;;;;;;;;4867425;29;20052;-72
2024/03/20 05:22:33;;;;;;;;;;;;;;;;;;4867991;29;20432;-72
2024/03/20 05:25:01;;;;;;;8.15;3.65;;;;;;;;;;4851414;29;19927;-72
2024/03/20 05:27:30;;;;;;;5.38;3.97;;;;;;;;;;4867720;29;20064;-71
2024/03/20 05:29:58;;;;;;;5.32;3.72;;;;;;;;;;4867903;29;20536;-72
2024/03/20 05:32:26;;;;;;;6.72;3.88;;;;;;;;;;4866740;29;20514;-72
2024/03/20 05:34:54;;;;;;;7.35;3.90;;;;;;;;;;4867587;29;20064;-71
2024/03/20 05:37:24;;;;;;;7.55;4.03;;;;;;;;;;4867349;29;20057;-72
2024/03/20 05:39:52;;;;;;;6.75;3.95;;;;;;;;;;4867660;29;20048;-72
2024/03/20 05:42:21;;;;;;;;;;;;;;;;;;4869205;29;20045;-71
2024/03/20 05:44:49;;;;;;;5.63;4.05;;;;;;;;;;4867912;29;20402;-72
2024/03/20 05:47:18;;;;;;;7.28;4.32;;;;;;;;;;4868237;29;20068;-72
2024/03/20 05:49:46;;;;;;;10.95;3.97;;;;;;;;;;4867890;29;20690;-72
2024/03/20 05:52:15;;;;;;;9.48;4.35;;;;;;;;;;4867398;29;20421;-72
2024/03/20 05:54:43;;;;;;;6.82;3.83;;;;;;;;;;4867955;29;20052;-72
2024/03/20 05:57:12;;;;;;;6.10;4.03;;;;;;;;;;4868275;29;20076;-72
2024/03/20 05:59:40;;;;;;;9.07;4.25;;;;;;;;;;4867578;29;20540;-72
2024/03/20 06:02:09;;;;;;;9.68;3.88;;;;;;;;;;4867363;29;20501;-72
2024/03/20 06:04:37;;;;;;;7.97;3.97;;;;;;;;;;4867348;29;20528;-71
2024/03/20 06:07:06;;;;;;;5.90;3.65;;;;;;;;;;4867765;29;20042;-71
2024/03/20 06:09:36;;;;;;;5.18;3.83;;;;;;;;;;4867176;29;20056;-72
2024/03/20 06:12:05;;;;;;;6.30;3.97;;;;;;;;;;4867348;29;20044;-72
2024/03/20 06:14:33;;;;;;;10.35;3.92;;;;;;;;;;4866933;29;20535;-72
2024/03/20 06:17:02;;;;;;;9.73;3.88;;;;;;;;;;4866817;29;20060;-71
2024/03/20 06:19:30;;;;;;;5.65;3.67;;;;;;;;;;4867271;29;20049;-71
2024/03/20 06:22:01;;;;;;;5.60;3.30;;;;;;;;;;4867162;29;20060;-72
2024/03/20 06:24:30;;;;;;;7.50;3.65;;;;;;;;;;4867193;29;20053;-71
2024/03/20 06:26:58;;;;;;;4.45;3.63;;;;;;;;;;4852035;29;20057;-72
2024/03/20 06:29:26;;;;;;;7.25;3.42;;;;;;;;;;4867185;29;20391;-72
2024/03/20 06:31:56;;;;;;;8.57;3.92;;;;;;;;;;4867229;29;20921;-71
2024/03/20 06:34:25;;;;;;;5.82;3.63;;;;;;;;;;4867672;29;20410;-71
2024/03/20 06:36:53;;;;;;;5.38;4.05;;;;;;;;;;4867382;29;20060;-72
2024/03/20 06:39:22;;;;;;;6.55;3.70;;;;;;;;;;4851572;29;20663;-72
2024/03/20 06:41:52;;;;;;;4.85;3.80;;;;;;;;;;4867055;29;20053;-72
2024/03/20 06:44:20;;;;;;;4.20;3.22;;;;;;;;;;4867232;29;20422;-71
2024/03/20 06:46:48;;;;;;;5.65;4.25;;;;;;;;;;4866766;29;20044;-71
2024/03/20 06:49:18;;;;;;;6.90;4.15;;;;;;;;;;4867391;29;20060;-71
2024/03/20 06:51:49;;;;;;;14.05;4.90;;;;;;;;;;4867029;29;20527;-71
2024/03/20 06:54:19;;;;;;;5.40;3.67;;;;;;;;;;4866940;29;20049;-72
2024/03/20 06:56:52;;;;;;;5.70;3.78;;;;;;;;;;4866572;29;20626;-71
2024/03/20 06:59:21;;;;;;;4.75;3.40;;;;;;;;;;4867085;29;20045;-72
2024/03/20 07:01:49;;;;;;;7.55;4.32;;;;;;;;;;4870083;29;20535;-72
2024/03/20 07:04:18;;;;;;;5.75;3.75;;;;;;;;;;4870023;29;20040;-72
2024/03/20 07:06:47;;;;;;;5.53;3.90;;;;;;;;;;4870433;29;20052;-72
2024/03/20 07:09:16;;;;;;;8.02;4.13;;;;;;;;;;4870432;29;20527;-71
2024/03/20 07:11:48;;;;;;;5.28;3.60;;;;;;;;;;4870309;29;20052;-72
2024/03/20 07:14:18;;;;;;;7.20;4.35;;;;;;;;;;4870251;29;20056;-72
2024/03/20 07:16:46;;;;;;;4.82;3.90;;;;;;;;;;4869742;29;20064;-72
2024/03/20 07:19:14;;;;;;;6.38;3.85;;;;;;;;;;4870447;29;20041;-72
2024/03/20 07:21:44;;;;;;;9.02;3.72;;;;;;;;;;4869974;29;20053;-71
2024/03/20 07:24:12;;;;;;;8.40;4.32;;;;;;;;;;4869874;29;20509;-72
2024/03/20 07:26:41;;;;;;;7.53;3.90;;;;;;;;;;4871208;29;20049;-71
2024/03/20 07:29:11;;;;;;;5.63;3.78;;;;;;;;;;4870911;29;20420;-71
2024/03/20 07:31:40;;;;;;;7.35;4.10;;;;;;;;;;4869877;29;20060;-72
2024/03/20 07:34:08;;;;;;;6.82;3.83;;;;;;;;;;4869414;29;20060;-72
2024/03/20 07:36:36;;;;;;;10.18;4.68;;;;;;;;;;4869487;29;20409;-72
2024/03/20 07:39:08;;;;;;;5.32;3.90;;;;;;;;;;4853827;29;20428;-72
2024/03/20 07:41:36;;;;;;;8.95;3.88;;;;;;;;;;4869351;29;20497;-72
2024/03/20 07:44:04;;;;;;;6.47;4.18;;;;;;;;;;4869560;29;20049;-72
2024/03/20 07:46:34;;;;;;;9.60;4.35;;;;;;;;;;4869453;29;20057;-72
2024/03/20 07:49:03;;;;;;;;;;;;;;;;;;4869816;29;20049;-72
2024/03/20 07:51:31;;;;;;;5.65;3.88;;;;;;;;;;4869430;29;20262;-71
2024/03/20 07:54:00;;;;;;;4.97;3.58;;;;;;;;;;4869074;29;20394;-71
2024/03/20 07:56:28;;;;;;;8.50;4.68;;;;;;;;;;4869400;29;20061;-71
2024/03/20 07:58:57;;;;;;;7.70;4.28;;;;;;;;;;4869910;29;20064;-71
2024/03/20 08:01:25;;;;;;;5.28;3.67;;;;;;;;;;4869669;29;20432;-71
2024/03/20 08:03:55;;;;;;;5.05;3.80;;;;;;;;;;4869095;29;20206;-71
2024/03/20 08:06:23;;;;;;;5.82;4.00;;;;;;;;;;4869161;29;20049;-72
2024/03/20 08:08:51;;;;;;;9.75;4.00;;;;;;;;;;4869485;29;20535;-72
2024/03/20 08:11:19;;;;;;;7.68;4.50;;;;;;;;;;4868933;29;20501;-72
2024/03/20 08:13:50;;;;;;;8.93;4.45;;;;;;;;;;4867865;29;20505;-72
2024/03/20 08:16:18;;;;;;;6.30;4.05;;;;;;;;;;4869607;29;20810;-72
2024/03/20 08:18:46;;;;;;;9.07;4.70;;;;;;;;;;4869084;29;20049;-72
2024/03/20 08:21:17;;;;;;;5.70;4.28;;;;;;;;;;4869020;29;20053;-72
2024/03/20 08:23:45;;;;;;;10.68;4.40;;;;;;;;;;4868870;29;20057;-71
2024/03/20 08:26:14;;;;;;;9.77;5.40;;;;;;;;;;4868463;29;20508;-72
2024/03/20 08:28:43;;;;;;;;;;;;;;;;;;4869516;29;20052;-72
2024/03/20 08:31:11;;;;;;;7.10;5.07;;;;;;;;;;4868597;29;19935;-71
2024/03/20 08:33:40;;;;;;;10.85;4.88;;;;;;;;;;4868880;29;20543;-73
2024/03/20 08:36:08;;;;;;;8.23;4.78;;;;;;;;;;4868645;29;20052;-72
2024/03/20 08:38:36;;;;;;;6.05;4.70;;;;;;;;;;4868277;29;20052;-71
2024/03/20 08:41:06;;;;;;;6.30;4.55;;;;;;;;;;4868630;29;20060;-72
2024/03/20 08:43:35;;;;;;;8.63;5.00;;;;;;;;;;4853702;29;20041;-72
2024/03/20 08:46:08;;;;;;;10.98;6.22;;;;;;;;;;4868647;29;20049;-71
2024/03/20 08:48:38;;;;;;;13.70;6.65;;;;;;;;;;4869375;29;20056;-72
2024/03/20 08:51:06;;;;;;;11.82;6.57;;;;;;;;;;4868233;29;20049;-72
2024/03/20 08:53:35;;;;;;;11.02;6.60;;;;;;;;;;4868720;29;20060;-72
2024/03/20 08:56:06;;;;;;;12.30;7.32;;;;;;;;;;4868220;29;20053;-72
2024/03/20 08:58:35;;;;;;;11.30;6.85;;;;;;;;;;4868302;29;20065;-72
2024/03/20 09:01:03;;;;;;;11.07;6.45;;;;;;;;;;4868171;29;20517;-72
2024/03/20 09:03:32;;;;;;;16.10;6.97;;;;;;;;;;4868229;29;20053;-76
2024/03/20 09:06:00;;;;;;;10.05;6.90;;;;;;;;;;4868078;29;20053;-72
2024/03/20 09:08:30;;;;;;;12.63;7.13;;;;;;;;;;4837803;29;20061;-78
2024/03/20 09:10:58;;;;;;;16.92;7.65;;;;;;;;;;4867658;29;20539;-72
2024/03/20 09:13:31;;;;;;;13.57;7.45;;;;;;;;;;4867830;29;20044;-72
2024/03/20 09:16:00;;;;;;;13.52;6.88;;;;;;;;;;4868134;29;20049;-72
2024/03/20 09:18:28;;;;;;;8.95;6.68;;;;;;;;;;4868352;29;20053;-71
2024/03/20 09:20:57;;;;;;;14.48;7.00;;;;;;;;;;4867574;29;20048;-73
2024/03/20 09:23:26;;;;;;;17.70;7.45;;;;;;;;;;4867880;29;20057;-71
2024/03/20 09:25:55;;;;;;;21.17;7.43;;;;;;;;;;4868449;29;20053;-72
2024/03/20 09:28:23;;;;;;;16.73;7.20;;;;;;;;;;4868195;29;20060;-72
2024/03/20 09:30:52;;;;;;;31.38;6.72;;;;;;;;;;4867966;29;20390;-72
2024/03/20 09:33:20;;;;;;;23.45;7.57;;;;;;;;;;4867338;29;20053;-71
2024/03/20 09:35:49;;;;;;;20.67;8.70;;;;;;;;;;4867841;29;20811;-73
2024/03/20 09:38:17;;;;;;;19.60;7.30;;;;;;;;;;4868193;29;20045;-72
2024/03/20 09:40:47;;;;;;;14.70;7.55;;;;;;;;;;4868446;29;20053;-71
2024/03/20 09:43:17;;;;;;;24.73;7.80;;;;;;;;;;4867598;29;20639;-72
2024/03/20 09:45:48;;;;;;;26.20;7.88;;;;;;;;;;4867095;29;20052;-74
2024/03/20 09:48:16;;;;;;;34.20;7.10;;;;;;;;;;4867774;29;20531;-72
2024/03/20 09:50:45;;;;;;;15.32;7.15;;;;;;;;;;4867993;29;20713;-72
2024/03/20 09:53:14;;;;;;;13.10;7.25;;;;;;;;;;4867604;29;20052;-74
2024/03/20 09:55:45;;;;;;;12.80;6.82;;;;;;;;;;4867155;29;20053;-73
2024/03/20 09:58:14;;;;;;;11.13;6.55;;;;;;;;;;4867067;29;20443;-73
2024/03/20 10:00:42;;;;;;;10.18;6.85;;;;;;;;;;4867211;29;20086;-72
2024/03/20 10:03:15;;;;;;;11.07;6.47;;;;;;;;;;4866852;29;20063;-72
2024/03/20 10:05:45;;;;;;;12.68;7.32;;;;;;;;;;4867412;29;20060;-78
2024/03/20 10:08:15;;;;;;;12.23;7.35;;;;;;;;;;4868022;29;20059;-71
2024/03/20 10:10:45;;;;;;;12.80;6.93;;;;;;;;;;4867309;29;20053;-71
2024/03/20 10:13:14;;;;;;;14.60;7.30;;;;;;;;;;4867556;29;20049;-73
2024/03/20 10:15:42;;;;;;;13.13;6.38;;;;;;;;;;4867202;29;20053;-74
2024/03/20 10:18:20;;;;;;;15.75;6.93;;;;;;;;;;4867693;29;20497;-73
2024/03/20 10:20:50;;;;;;;9.50;5.90;;;;;;;;;;4867087;29;20045;-72
2024/03/20 10:23:19;;;;;;;11.27;6.18;;;;;;;;;;4867333;29;20874;-73
2024/03/20 10:25:49;;;;;;;17.65;6.43;;;;;;;;;;4867341;29;20040;-74
2024/03/20 10:28:23;;;;;;;15.98;6.05;;;;;;;;;;4867516;29;20061;-76
2024/03/20 10:30:53;;;;;;;10.35;6.10;;;;;;;;;;4866701;29;20056;-72
2024/03/20 10:33:21;;;;;;;;;;;;;;;;;;4867966;29;20049;-73
2024/03/20 10:35:53;;;;;;;14.70;5.43;;;;;;;;;;4853453;29;19935;-72
2024/03/20 10:38:23;;;;;;;9.45;6.53;;;;;;;;;;4870439;29;20052;-80
2024/03/20 10:40:52;;;;;;;8.82;5.70;;;;;;;;;;4870923;29;20512;-73
2024/03/20 10:43:25;;;;;;;11.75;5.85;;;;;;;;;;4870324;29;20060;-72
2024/03/20 10:45:56;;;;;;;8.75;5.78;;;;;;;;;;4855187;29;20078;-72
2024/03/20 10:48:25;;;;;;;11.98;6.07;;;;;;;;;;4854856;29;20061;-72
2024/03/20 10:50:54;;;;;;;12.43;5.20;;;;;;;;;;4870220;29;20426;-72
2024/03/20 10:53:26;;;;;;;12.07;5.63;;;;;;;;;;4870124;29;20045;-73
2024/03/20 10:55:55;;;;;;;8.20;5.47;;;;;;;;;;4870429;29;20810;-72
2024/03/20 10:58:25;;;;;;;9.73;5.10;;;;;;;;;;4870565;29;20572;-72
2024/03/20 11:00:58;;;;;;;8.25;5.07;;;;;;;;;;4855984;29;20049;-72
2024/03/20 11:03:42;;;;;;;8.13;4.78;;;;;;;;;;4869779;29;20057;-72
2024/03/20 11:06:39;;;;;;;9.05;4.30;;;;;;;;;;4870497;29;20056;-71
2024/03/20 11:09:07;;;;;;;5.95;4.38;;;;;;;;;;4868202;29;20057;-72
2024/03/20 11:11:37;;;;;;;9.07;4.00;;;;;;;;;;4870067;29;20064;-72
2024/03/20 11:14:10;;;;;;;5.72;3.95;;;;;;;;;;4870432;29;20505;-73
2024/03/20 11:16:40;;;;;;;8.75;3.88;;;;;;;;;;4869637;29;20513;-88
2024/03/20 11:19:09;;;;;;;6.55;4.13;;;;;;;;;;4869635;29;20819;-73
2024/03/20 11:21:37;;;;;;;5.25;4.03;;;;;;;;;;4870055;29;20049;-74
2024/03/20 11:24:06;;;;;;;5.47;3.58;;;;;;;;;;4869845;29;20053;-72
2024/03/20 11:26:35;;;;;;;7.90;3.40;;;;;;;;;;4870580;29;20067;-72
2024/03/20 11:29:03;;;;;;;;;;;;;;;;;;4855086;29;20056;-73
2024/03/20 11:31:32;;;;;;;6.43;3.08;;;;;;;;;;4854514;29;20303;-76
2024/03/20 11:34:03;;;;;;;5.72;2.72;;;;;;;;;;4870167;29;20520;-73
2024/03/20 11:36:32;;;;;;;2.85;2.20;;;;;;;;;;4868571;29;20445;-73
2024/03/20 11:39:08;;;;;;;5.88;2.80;;;;;;;;;;4867444;29;20049;-73
2024/03/20 11:41:37;;;;;;;8.63;6.22;;;;;;;;;;4867516;29;20083;-73
2024/03/20 11:44:10;;;;;;;4.40;2.40;;;;;;;;;;4852593;29;20067;-72
2024/03/20 11:46:39;;;;;;;3.78;2.28;;;;;;;;;;4867922;29;20060;-73
2024/03/20 11:49:09;;;;;;;4.97;2.15;;;;;;;;;;4867692;29;20047;-80
2024/03/20 11:51:38;;;;;;;3.00;2.10;;;;;;;;;;4868670;29;20044;-73
2024/03/20 11:54:06;;;;;;;13.75;8.07;;;;;;;;;;4869782;29;20056;-72
2024/03/20 11:56:37;;;;;;;3.08;2.40;;;;;;;;;;4868930;29;20064;-73
2024/03/20 11:59:08;;;;;;;3.55;2.30;;;;;;;;;;4869292;29;20060;-72
2024/03/20 12:01:36;;;;;;;4.32;2.30;;;;;;;;;;4869671;29;20057;-73
2024/03/20 12:04:05;;;;;;;4.13;2.20;;;;;;;;;;4869260;29;20700;-73
2024/03/20 12:06:37;;;;;;;3.03;1.90;;;;;;;;;;4868849;29;20049;-73
2024/03/20 12:09:17;;;;;;;4.32;1.58;;;;;;;;;;4853898;29;20060;-73
2024/03/20 12:11:46;;;;;;;5.57;2.22;;;;;;;;;;4869439;29;20048;-74
2024/03/20 12:14:15;;;;;;;4.85;2.15;;;;;;;;;;4868874;29;20875;-73
2024/03/20 12:16:45;;;;;;;4.88;2.20;;;;;;;;;;4869653;29;20421;-73
2024/03/20 12:19:13;;;;;;;2.78;2.08;;;;;;;;;;4869407;29;20052;-72
2024/03/20 12:22:44;;;;;;;4.95;2.60;;;;;;;;;;4873671;29;20065;-73
2024/03/20 12:25:44;;;;;;;3.78;2.22;;;;;;;;;;4870012;29;20056;-73
2024/03/20 12:29:14;;;;;;;5.43;2.28;;;;;;;;;;4871264;29;20061;-73
2024/03/20 12:36:02;;;;;;;3.90;2.38;;;;;;;;;;4870376;29;20056;-74
2024/03/20 12:39:08;;;;;;;4.97;2.20;;;;;;;;;;4869726;29;20064;-73
2024/03/20 12:42:35;;;;;;;4.88;2.42;;;;;;;;;;4870285;29;20057;-73
2024/03/20 12:45:13;;;;;;;5.40;2.05;;;;;;;;;;4854738;29;20524;-84
2024/03/20 12:48:42;;;;;;;5.13;2.47;;;;;;;;;;4873807;29;20052;-73
2024/03/20 12:55:14;;;;;;;5.05;2.88;;;;;;;;;;4871273;29;20040;-73
2024/03/20 12:57:43;;;;;;;4.85;2.60;;;;;;;;;;4870078;29;20056;-73
2024/03/20 13:00:16;;;;;;;2.60;2.00;;;;;;;;;;4870026;29;20057;-74
2024/03/20 13:02:44;;;;;;;8.75;2.78;;;;;;;;;;4854514;29;20057;-74
2024/03/20 13:05:13;;;;;;;4.55;2.38;;;;;;;;;;4869958;29;20048;-74
2024/03/20 13:07:47;;;;;;;3.25;2.30;;;;;;;;;;4870034;29;20060;-73
2024/03/20 13:10:15;;;;;;;2.70;2.17;;;;;;;;;;4868648;29;20056;-73
2024/03/20 13:12:44;;;;;;;4.82;2.80;;;;;;;;;;4869220;29;20045;-74
2024/03/20 13:15:12;;;;;;;;;;;;;;;;;;4869075;29;20060;-73
2024/03/20 13:17:41;;;;;;;3.80;2.05;;;;;;;;;;4867472;29;19928;-75
2024/03/20 13:20:11;;;;;;;3.55;2.00;;;;;;;;;;4851511;29;20061;-74
2024/03/20 13:22:42;;;;;;;6.82;2.72;;;;;;;;;;4867978;29;20049;-73
2024/03/20 13:25:18;;;;;;;6.47;2.35;;;;;;;;;;4867861;29;20049;-73
2024/03/20 13:27:47;;;;;;;3.15;2.30;;;;;;;;;;4867601;29;20580;-74
2024/03/20 13:30:15;;;;;;;3.97;2.78;;;;;;;;;;4867782;29;20056;-73
2024/03/20 13:32:45;;;;;;;3.83;2.22;;;;;;;;;;4868002;29;20056;-74
2024/03/20 13:35:14;;;;;;;6.00;2.30;;;;;;;;;;4867701;29;20060;-74
2024/03/20 13:37:45;;;;;;;5.28;2.40;;;;;;;;;;4867589;29;20049;-74
2024/03/20 13:40:36;;;;;;;6.65;2.25;;;;;;;;;;4868343;29;20534;-79
2024/03/20 13:45:57;;;;;;;2.95;2.15;;;;;;;;;;4868137;29;20420;-79
2024/03/20 13:48:26;;;;;;;7.32;2.20;;;;;;;;;;4867723;29;20053;-79
2024/03/20 13:50:56;;;;;;;5.80;2.33;;;;;;;;;;4867787;29;20056;-74
2024/03/20 13:53:24;;;;;;;4.97;2.30;;;;;;;;;;4852555;29;20069;-74
2024/03/20 13:55:53;;;;;;;3.10;2.17;;;;;;;;;;4869388;29;20053;-73
2024/03/20 13:58:25;;;;;;;8.93;2.78;;;;;;;;;;4867730;29;20064;-74
2024/03/20 14:00:54;;;;;;;2.13;1.90;;;;;;;;;;4867957;29;20052;-74
2024/03/20 14:03:23;;;;;;;7.00;3.00;;;;;;;;;;4867372;29;20060;-74
2024/03/20 14:05:51;;;;;;;10.63;2.47;;;;;;;;;;4867504;29;20057;-74
2024/03/20 14:08:20;;;;;;;6.15;2.55;;;;;;;;;;4867820;29;20528;-74
2024/03/20 14:10:49;;;;;;;4.32;2.10;;;;;;;;;;4854367;29;20060;-74
2024/03/20 14:13:17;;;;;;;3.92;2.60;;;;;;;;;;4871873;29;20049;-73
2024/03/20 14:15:47;;;;;;;9.45;2.70;;;;;;;;;;4871824;29;20063;-73
2024/03/20 14:18:16;;;;;;;7.30;2.63;;;;;;;;;;4856030;29;20059;-74
2024/03/20 14:20:45;;;;;;;7.53;2.38;;;;;;;;;;4871619;29;20409;-73
2024/03/20 14:23:12;;;;;;;;;;;;;;;;;;4856535;29;20064;-76
2024/03/20 14:25:41;;;;;;;5.05;4.43;;;;;;;;;;4871956;29;19924;-72
2024/03/20 14:28:10;;;;;;;10.98;2.97;;;;;;;;;;4871937;29;20060;-73
2024/03/20 14:30:40;;;;;;;2.97;2.50;;;;;;;;;;4856479;29;20045;-73
2024/03/20 14:33:10;;;;;;;3.83;2.40;;;;;;;;;;4855829;29;20071;-73
2024/03/20 14:35:38;;;;;;;3.83;2.47;;;;;;;;;;4871220;29;20045;-73
2024/03/20 14:38:30;;;;;;;5.72;2.40;;;;;;;;;;4871280;29;20045;-73
2024/03/20 14:40:57;;;;;;;5.05;2.40;;;;;;;;;;4870561;29;20056;-72
2024/03/20 14:43:29;;;;;;;4.72;2.83;;;;;;;;;;4858336;29;20061;-74
2024/03/20 14:46:02;;;;;;;8.57;2.92;;;;;;;;;;4855871;29;20436;-74
2024/03/20 14:48:43;;;;;;;4.22;2.30;;;;;;;;;;4870602;29;20369;-73
2024/03/20 14:51:17;;;;;;;3.55;2.55;;;;;;;;;;4870647;29;20062;-74
2024/03/20 14:53:46;;;;;;;6.68;2.70;;;;;;;;;;4870380;29;20053;-74
2024/03/20 14:56:16;;;;;;;5.10;2.65;;;;;;;;;;4870220;29;20049;-72
2024/03/20 14:58:46;;;;;;;7.65;2.63;;;;;;;;;;4870381;29;20072;-73
2024/03/20 15:01:20;;;;;;;6.10;2.60;;;;;;;;;;4870210;29;20060;-72
2024/03/20 15:03:53;;;;;;;2.65;2.20;;;;;;;;;;4870781;29;20052;-72
2024/03/20 15:06:22;;;;;;;7.55;2.70;;;;;;;;;;4870209;29;20053;-73
2024/03/20 15:08:50;;;;;;;4.88;2.50;;;;;;;;;;4869979;29;20421;-72
2024/03/20 15:11:23;;;;;;;5.28;2.58;;;;;;;;;;4870326;29;20513;-73
2024/03/20 15:13:54;;;;;;;4.88;2.40;;;;;;;;;;4870200;29;20049;-73
2024/03/20 15:16:25;;;;;;;5.70;2.65;;;;;;;;;;4869942;29;20048;-73